createdAt,value
2022-08-25T00:00:17.097Z,101068.44
2022-08-25T00:03:02.933Z,101043.03
2022-08-25T00:05:50.131Z,101083.63
2022-08-25T00:08:36.953Z,101072.44
2022-08-25T00:11:23.981Z,101075.09
2022-08-25T00:14:13.687Z,101055.91
2022-08-25T00:16:59.530Z,101068.38
2022-08-25T00:19:45.201Z,101061.75
2022-08-25T00:22:30.480Z,101083.03
2022-08-25T00:25:15.908Z,101089.94
2022-08-25T00:28:04.152Z,101100.50
2022-08-25T00:30:53.086Z,101105.88
2022-08-25T00:33:38.646Z,101096.38
2022-08-25T00:36:23.712Z,101106.28
2022-08-25T00:39:10.970Z,101088.94
2022-08-25T00:41:57.689Z,101096.19
2022-08-25T00:44:43.072Z,101079.41
2022-08-25T00:47:28.428Z,101075.84
2022-08-25T00:50:15.583Z,101068.84
2022-08-25T00:53:04.470Z,101074.22
2022-08-25T00:55:50.869Z,101073.31
2022-08-25T00:58:36.946Z,101073.50
2022-08-25T01:01:22.346Z,101076.22
2022-08-25T01:04:08.244Z,101084.22
2022-08-25T01:06:54.094Z,101076.28
2022-08-25T01:09:39.483Z,101056.13
2022-08-25T01:12:26.843Z,101064.00
2022-08-25T01:15:13.403Z,101056.84
2022-08-25T01:17:59.779Z,101083.09
2022-08-25T01:20:50.231Z,101090.47
2022-08-25T01:23:35.232Z,101081.94
2022-08-25T01:26:28.328Z,101089.19
2022-08-25T01:29:15.529Z,101091.16
2022-08-25T01:32:04.557Z,101099.91
2022-08-25T01:34:49.696Z,101085.22
2022-08-25T01:37:37.111Z,101089.09
2022-08-25T01:40:22.580Z,101097.41
2022-08-25T01:43:07.842Z,101102.91
2022-08-25T01:45:53.133Z,101112.78
2022-08-25T01:48:38.855Z,101101.28
2022-08-25T01:51:25.663Z,101091.72
2022-08-25T01:54:10.875Z,101114.59
2022-08-25T01:56:55.856Z,101117.34
2022-08-25T01:59:40.777Z,101104.38
2022-08-25T02:02:26.375Z,101110.94
2022-08-25T02:05:13.652Z,101099.97
2022-08-25T02:07:58.796Z,101102.44
2022-08-25T02:10:44.351Z,101114.28
2022-08-25T02:13:31.154Z,101117.84
2022-08-25T02:16:20.302Z,101118.72
2022-08-25T02:19:08.563Z,101111.75
2022-08-25T02:21:53.825Z,101116.97
2022-08-25T02:24:39.021Z,101120.53
2022-08-25T02:27:24.624Z,101117.09
2022-08-25T02:30:10.569Z,101124.94
2022-08-25T02:32:55.765Z,101118.09
2022-08-25T02:35:41.237Z,101126.97
2022-08-25T02:38:26.811Z,101113.03
2022-08-25T02:41:17.841Z,101109.53
2022-08-25T02:44:05.227Z,101107.84
2022-08-25T02:46:50.530Z,101109.69
2022-08-25T02:49:35.481Z,101106.19
2022-08-25T02:52:20.924Z,101114.19
2022-08-25T02:55:09.240Z,101112.53
2022-08-25T02:57:54.437Z,101115.28
2022-08-25T03:00:39.891Z,101105.78
2022-08-25T03:03:25.340Z,101110.19
2022-08-25T03:06:12.829Z,101109.41
2022-08-25T03:08:58.455Z,101117.25
2022-08-25T03:11:43.400Z,101103.97
2022-08-25T03:14:28.667Z,101096.81
2022-08-25T03:17:14.053Z,101100.25
2022-08-25T03:19:59.048Z,101090.72
2022-08-25T03:22:43.965Z,101089.84
2022-08-25T03:25:29.408Z,101089.06
2022-08-25T03:28:14.664Z,101102.19
2022-08-25T03:31:02.827Z,101089.97
2022-08-25T03:33:48.285Z,101096.13
2022-08-25T03:36:33.216Z,101090.00
2022-08-25T03:39:19.943Z,101089.16
2022-08-25T03:42:05.136Z,101094.47
2022-08-25T03:44:50.000Z,101089.16
2022-08-25T03:47:35.081Z,101088.63
2022-08-25T03:50:21.911Z,101088.75
2022-08-25T03:53:07.049Z,101094.19
2022-08-25T03:55:55.879Z,101092.53
2022-08-25T03:58:41.123Z,101084.75
2022-08-25T04:01:26.560Z,101086.56
2022-08-25T04:04:13.393Z,101086.56
2022-08-25T04:06:58.364Z,101082.91
2022-08-25T04:09:43.933Z,101079.53
2022-08-25T04:12:29.059Z,101071.75
2022-08-25T04:15:14.730Z,101080.50
2022-08-25T04:17:59.749Z,101063.91
2022-08-25T04:20:46.751Z,101070.91
2022-08-25T04:23:32.545Z,101072.63
2022-08-25T04:26:24.353Z,101067.38
2022-08-25T04:29:11.797Z,101084.88
2022-08-25T04:31:57.251Z,101089.22
2022-08-25T04:34:42.564Z,101078.75
2022-08-25T04:37:27.449Z,101077.94
2022-08-25T04:40:13.005Z,101086.72
2022-08-25T04:42:58.998Z,101076.16
2022-08-25T04:45:44.361Z,101083.88
2022-08-25T04:48:29.583Z,101089.94
2022-08-25T04:51:18.169Z,101085.53
2022-08-25T04:54:06.289Z,101084.59
2022-08-25T04:56:58.036Z,101067.00
2022-08-25T04:59:43.848Z,101066.88
2022-08-25T05:02:28.726Z,101065.00
2022-08-25T05:05:14.298Z,101057.09
2022-08-25T05:07:59.346Z,101060.44
2022-08-25T05:10:44.688Z,101063.84
2022-08-25T05:13:30.618Z,101057.56
2022-08-25T05:16:17.205Z,101061.03
2022-08-25T05:19:02.474Z,101054.00
2022-08-25T05:21:47.696Z,101049.53
2022-08-25T05:24:32.520Z,101042.44
2022-08-25T05:27:17.846Z,101044.06
2022-08-25T05:30:03.781Z,101050.84
2022-08-25T05:32:49.168Z,101053.34
2022-08-25T05:35:34.731Z,101047.09
2022-08-25T05:38:19.957Z,101062.66
2022-08-25T05:41:08.890Z,101058.19
2022-08-25T05:43:54.432Z,101053.69
2022-08-25T05:46:39.859Z,101069.28
2022-08-25T05:49:24.913Z,101050.00
2022-08-25T05:52:10.278Z,101057.69
2022-08-25T05:54:55.625Z,101055.81
2022-08-25T05:57:40.496Z,101052.25
2022-08-25T06:00:25.589Z,101053.00
2022-08-25T06:03:10.858Z,101051.78
2022-08-25T06:06:05.736Z,101039.06
2022-08-25T06:08:51.748Z,101044.66
2022-08-25T06:11:38.660Z,101025.69
2022-08-25T06:14:24.245Z,101009.78
2022-08-25T06:17:09.785Z,101015.16
2022-08-25T06:19:54.895Z,101020.41
2022-08-25T06:22:40.136Z,101021.16
2022-08-25T06:25:26.842Z,101030.00
2022-08-25T06:28:11.907Z,101028.97
2022-08-25T06:31:01.631Z,101025.41
2022-08-25T06:33:46.783Z,101033.06
2022-08-25T06:36:32.978Z,101034.94
2022-08-25T06:39:18.505Z,101024.28
2022-08-25T06:42:04.255Z,101028.44
2022-08-25T06:44:49.308Z,101022.06
2022-08-25T06:47:34.740Z,101022.72
2022-08-25T06:50:20.272Z,101021.66
2022-08-25T06:53:05.732Z,101023.06
2022-08-25T06:55:58.352Z,101024.59
2022-08-25T06:58:43.576Z,101030.22
2022-08-25T07:01:28.661Z,101016.75
2022-08-25T07:04:17.008Z,101014.63
2022-08-25T07:07:03.508Z,101016.97
2022-08-25T07:09:48.565Z,101012.16
2022-08-25T07:12:33.522Z,101007.13
2022-08-25T07:15:20.872Z,101003.16
2022-08-25T07:18:07.258Z,101000.75
2022-08-25T07:20:52.727Z,101007.69
2022-08-25T07:23:38.093Z,101011.31
2022-08-25T07:26:37.225Z,101011.59
2022-08-25T07:29:31.728Z,101000.19
2022-08-25T07:32:18.095Z,100994.81
2022-08-25T07:35:03.818Z,100989.63
2022-08-25T07:37:52.149Z,100984.03
2022-08-25T07:40:42.998Z,100967.72
2022-08-25T07:43:28.444Z,100972.91
2022-08-25T07:46:13.696Z,100953.88
2022-08-25T07:48:59.108Z,100955.16
2022-08-25T07:52:04.205Z,100968.66
2022-08-25T07:54:50.914Z,100964.91
2022-08-25T07:57:35.894Z,100948.44
2022-08-25T08:00:21.493Z,100947.94
2022-08-25T08:03:15.935Z,100968.16
2022-08-25T08:06:11.969Z,100982.03
2022-08-25T08:08:57.975Z,100949.78
2022-08-25T08:11:53.741Z,100941.31
2022-08-25T08:14:39.573Z,100945.41
2022-08-25T08:17:29.858Z,100947.66
2022-08-25T08:20:14.789Z,100941.09
2022-08-25T08:23:00.658Z,100941.88
2022-08-25T08:25:47.008Z,100937.66
2022-08-25T08:28:31.783Z,100937.56
2022-08-25T08:31:19.814Z,100929.63
2022-08-25T08:34:05.261Z,100956.59
2022-08-25T08:36:50.069Z,100928.84
2022-08-25T08:39:37.006Z,100960.84
2022-08-25T08:42:57.534Z,100925.53
2022-08-25T08:45:51.586Z,100917.59
2022-08-25T08:48:55.614Z,100903.00
2022-08-25T08:51:54.352Z,100912.50
2022-08-25T08:54:42.944Z,100888.97
2022-08-25T08:57:29.420Z,100890.75
2022-08-25T09:00:15.468Z,100899.09
2022-08-25T09:03:12.700Z,100923.50
2022-08-25T09:06:03.313Z,100893.00
2022-08-25T09:08:55.277Z,100882.84
2022-08-25T09:12:08.536Z,100885.81
2022-08-25T09:14:54.301Z,100888.22
2022-08-25T09:18:04.700Z,100875.50
2022-08-25T09:20:55.611Z,100861.63
2022-08-25T09:24:02.859Z,100873.91
2022-08-25T09:26:48.648Z,100873.75
2022-08-25T09:29:45.842Z,100852.75
2022-08-25T09:32:35.365Z,100872.34
2022-08-25T09:35:28.072Z,100883.25
2022-08-25T09:38:13.883Z,100895.59
2022-08-25T09:41:00.924Z,100890.38
2022-08-25T09:43:53.572Z,100904.75
2022-08-25T09:46:38.821Z,100883.59
2022-08-25T09:49:32.076Z,100868.97
2022-08-25T09:52:29.752Z,100905.78
2022-08-25T09:55:22.559Z,100872.50
2022-08-25T09:58:18.487Z,100874.38
2022-08-25T10:01:12.155Z,100873.78
2022-08-25T10:03:57.232Z,100866.31
2022-08-25T10:06:47.022Z,100877.19
2022-08-25T10:09:41.912Z,100860.88
2022-08-25T10:12:42.587Z,100855.06
2022-08-25T10:15:34.685Z,100843.66
2022-08-25T10:18:27.025Z,100840.28
2022-08-25T10:21:17.302Z,100843.44
2022-08-25T10:24:02.880Z,100830.75
2022-08-25T10:27:07.414Z,100805.03
2022-08-25T10:30:34.428Z,100818.69
2022-08-25T10:33:54.852Z,100802.88
2022-08-25T10:37:02.327Z,100803.81
2022-08-25T10:40:13.332Z,100799.66
2022-08-25T10:43:19.196Z,100812.53
2022-08-25T10:46:43.211Z,100788.41
2022-08-25T10:49:45.820Z,100780.66
2022-08-25T10:52:54.081Z,100788.47
2022-08-25T10:56:10.317Z,100774.44
2022-08-25T10:59:12.394Z,100794.28
2022-08-25T11:02:19.910Z,100776.59
2022-08-25T11:05:07.364Z,100766.03
2022-08-25T11:08:19.186Z,100778.00
2022-08-25T11:11:23.177Z,100767.34
2022-08-25T11:14:19.125Z,100769.44
2022-08-25T11:17:16.880Z,100784.31
2022-08-25T11:20:15.409Z,100758.53
2022-08-25T11:23:17.142Z,100813.72
2022-08-25T11:26:09.855Z,100763.13
2022-08-25T11:29:05.989Z,100785.34
2022-08-25T11:31:59.459Z,100745.78
2022-08-25T11:34:46.354Z,100741.66
2022-08-25T11:37:32.795Z,100750.22
2022-08-25T11:40:31.000Z,100760.66
2022-08-25T11:43:28.893Z,100736.41
2022-08-25T11:47:25.303Z,100743.09
2022-08-25T11:50:30.166Z,100780.63
2022-08-25T11:53:28.158Z,100734.25
2022-08-25T11:56:37.368Z,100733.88
2022-08-25T11:59:50.242Z,100716.97
2022-08-25T12:02:42.593Z,100724.13
2022-08-25T12:05:30.754Z,100732.91
2022-08-25T12:08:57.757Z,100705.34
2022-08-25T12:11:50.820Z,100709.06
2022-08-25T12:14:42.142Z,100709.25
2022-08-25T12:17:41.123Z,100688.50
2022-08-25T12:20:55.120Z,100727.28
2022-08-25T12:23:46.420Z,100668.91
2022-08-25T12:26:48.530Z,100682.66
2022-08-25T12:29:46.443Z,100693.09
2022-08-25T12:32:41.012Z,100684.94
2022-08-25T12:35:45.097Z,100692.75
2022-08-25T12:38:31.983Z,100696.78
2022-08-25T12:41:27.305Z,100681.19
2022-08-25T12:44:34.812Z,100654.94
2022-08-25T12:47:19.527Z,100655.22
2022-08-25T12:50:27.821Z,100664.88
2022-08-25T12:53:17.527Z,100648.53
2022-08-25T12:56:06.062Z,100647.19
2022-08-25T12:59:19.353Z,100656.66
2022-08-25T13:02:35.971Z,100660.09
2022-08-25T13:05:36.440Z,100649.63
2022-08-25T13:08:24.937Z,100635.22
2022-08-25T13:11:37.809Z,100631.75
2022-08-25T13:14:33.360Z,100627.16
2022-08-25T13:17:35.584Z,100604.13
2022-08-25T13:20:26.751Z,100617.13
2022-08-25T13:23:12.349Z,100607.47
2022-08-25T13:25:58.523Z,100603.28
2022-08-25T13:28:50.629Z,100592.25
2022-08-25T13:31:38.181Z,100620.50
2022-08-25T13:34:43.765Z,100619.97
2022-08-25T13:37:30.265Z,100619.84
2022-08-25T13:40:19.738Z,100615.81
2022-08-25T13:43:09.017Z,100621.50
2022-08-25T13:45:54.283Z,100627.59
2022-08-25T13:48:49.881Z,100633.06
2022-08-25T13:51:36.182Z,100640.81
2022-08-25T13:54:31.064Z,100599.59
2022-08-25T13:57:25.372Z,100610.03
2022-08-25T14:00:11.601Z,100633.06
2022-08-25T14:02:56.957Z,100613.09
2022-08-25T14:05:43.908Z,100598.06
2022-08-25T14:08:36.528Z,100581.38
2022-08-25T14:11:34.533Z,100598.97
2022-08-25T14:14:22.633Z,100584.38
2022-08-25T14:17:22.358Z,100583.28
2022-08-25T14:20:27.808Z,100599.22
2022-08-25T14:23:18.861Z,100589.72
2022-08-25T14:26:04.680Z,100581.34
2022-08-25T14:28:52.227Z,100592.94
2022-08-25T14:31:39.851Z,100572.09
2022-08-25T14:34:29.273Z,100569.78
2022-08-25T14:37:17.988Z,100570.50
2022-08-25T14:40:04.254Z,100567.31
2022-08-25T14:42:49.939Z,100561.75
2022-08-25T14:45:38.365Z,100576.31
2022-08-25T14:48:25.984Z,100569.78
2022-08-25T14:51:13.306Z,100568.28
2022-08-25T14:54:02.496Z,100577.69
2022-08-25T14:56:47.676Z,100559.44
2022-08-25T14:59:33.074Z,100563.84
2022-08-25T15:02:22.890Z,100547.94
2022-08-25T15:05:19.730Z,100546.72
2022-08-25T15:08:04.756Z,100553.53
2022-08-25T15:10:51.502Z,100560.53
2022-08-25T15:13:36.483Z,100544.38
2022-08-25T15:16:34.031Z,100541.00
2022-08-25T15:19:24.251Z,100526.88
2022-08-25T15:22:10.105Z,100559.47
2022-08-25T15:24:55.913Z,100536.16
2022-08-25T15:27:41.098Z,100529.44
2022-08-25T15:30:31.022Z,100533.47
2022-08-25T15:33:16.657Z,100535.41
2022-08-25T15:36:02.761Z,100508.28
2022-08-25T15:38:48.447Z,100530.91
2022-08-25T15:41:33.693Z,100528.81
2022-08-25T15:44:18.970Z,100512.56
2022-08-25T15:47:04.305Z,100519.38
2022-08-25T15:49:50.150Z,100517.56
2022-08-25T15:52:46.381Z,100529.00
2022-08-25T15:55:33.752Z,100503.69
2022-08-25T15:58:19.200Z,100513.00
2022-08-25T16:01:04.373Z,100500.38
2022-08-25T16:03:50.556Z,100545.88
2022-08-25T16:06:35.755Z,100499.72
2022-08-25T16:09:23.027Z,100517.25
2022-08-25T16:12:08.979Z,100499.94
2022-08-25T16:14:54.840Z,100486.16
2022-08-25T16:17:40.746Z,100511.50
2022-08-25T16:20:31.590Z,100488.94
2022-08-25T16:23:19.388Z,100510.09
2022-08-25T16:26:06.386Z,100512.75
2022-08-25T16:28:51.563Z,100529.00
2022-08-25T16:31:36.678Z,100493.97
2022-08-25T16:34:24.310Z,100512.56
2022-08-25T16:37:09.979Z,100535.91
2022-08-25T16:39:56.286Z,100558.97
2022-08-25T16:42:41.764Z,100500.16
2022-08-25T16:45:28.024Z,100476.16
2022-08-25T16:48:13.028Z,100478.50
2022-08-25T16:50:57.943Z,100482.81
2022-08-25T16:53:43.239Z,100573.75
2022-08-25T16:56:30.452Z,100608.16
2022-08-25T16:59:15.627Z,100591.84
2022-08-25T17:02:00.492Z,100519.97
2022-08-25T17:04:45.790Z,100507.25
2022-08-25T17:07:30.551Z,100524.31
2022-08-25T17:10:16.976Z,100553.53
2022-08-25T17:13:02.735Z,100569.63
2022-08-25T17:15:48.793Z,100506.53
2022-08-25T17:18:38.269Z,100476.84
2022-08-25T17:21:25.107Z,100511.63
2022-08-25T17:24:10.633Z,100553.16
2022-08-25T17:26:55.713Z,100498.56
2022-08-25T17:29:41.090Z,100470.81
2022-08-25T17:32:30.276Z,100524.25
2022-08-25T17:35:15.905Z,100549.00
2022-08-25T17:38:01.357Z,100540.38
2022-08-25T17:40:47.078Z,100549.69
2022-08-25T17:43:33.384Z,100491.09
2022-08-25T17:46:18.544Z,100504.72
2022-08-25T17:49:05.129Z,100516.53
2022-08-25T17:51:50.704Z,100504.53
2022-08-25T17:54:35.937Z,100510.34
2022-08-25T17:57:21.533Z,100510.34
2022-08-25T18:00:08.076Z,100561.97
2022-08-25T18:02:53.222Z,100522.22
2022-08-25T18:05:39.432Z,100597.06
2022-08-25T18:08:29.915Z,100588.41
2022-08-25T18:11:21.423Z,100575.16
2022-08-25T18:14:06.869Z,100538.47
2022-08-25T18:16:55.896Z,100580.56
2022-08-25T18:19:40.843Z,100590.03
2022-08-25T18:22:25.782Z,100597.59
2022-08-25T18:25:13.970Z,100586.63
2022-08-25T18:27:59.169Z,100588.03
2022-08-25T18:30:46.151Z,100574.59
2022-08-25T18:33:31.570Z,100567.03
2022-08-25T18:36:16.968Z,100575.38
2022-08-25T18:39:02.660Z,100585.16
2022-08-25T18:41:48.013Z,100552.91
2022-08-25T18:44:33.390Z,100587.28
2022-08-25T18:47:18.868Z,100608.97
2022-08-25T18:50:07.568Z,100558.22
2022-08-25T18:52:54.664Z,100558.50
2022-08-25T18:55:41.366Z,100586.25
2022-08-25T18:58:27.080Z,100588.47
2022-08-25T19:01:14.108Z,100610.72
2022-08-25T19:03:59.835Z,100606.28
2022-08-25T19:06:45.290Z,100595.56
2022-08-25T19:09:31.104Z,100599.56
2022-08-25T19:12:22.548Z,100591.00
2022-08-25T19:15:09.107Z,100587.75
2022-08-25T19:17:55.373Z,100598.59
2022-08-25T19:20:42.152Z,100591.03
2022-08-25T19:23:27.680Z,100579.88
2022-08-25T19:26:13.919Z,100591.75
2022-08-25T19:29:06.847Z,100607.97
2022-08-25T19:31:54.462Z,100611.03
2022-08-25T19:34:42.141Z,100607.75
2022-08-25T19:37:29.341Z,100592.41
2022-08-25T19:40:14.795Z,100592.88
2022-08-25T19:43:05.111Z,100586.31
2022-08-25T19:45:51.771Z,100596.16
2022-08-25T19:48:37.061Z,100603.47
2022-08-25T19:51:22.512Z,100596.84
2022-08-25T19:54:10.148Z,100594.63
2022-08-25T19:56:55.885Z,100602.00
2022-08-25T19:59:43.565Z,100597.13
2022-08-25T20:02:29.672Z,100605.38
2022-08-25T20:05:15.319Z,100607.53
2022-08-25T20:08:00.724Z,100603.28
2022-08-25T20:10:46.184Z,100608.88
2022-08-25T20:13:32.557Z,100610.72
2022-08-25T20:16:17.967Z,100618.09
2022-08-25T20:19:06.017Z,100612.88
2022-08-25T20:21:54.258Z,100622.88
2022-08-25T20:24:39.718Z,100632.66
2022-08-25T20:27:31.554Z,100623.09
2022-08-25T20:30:26.133Z,100612.97
2022-08-25T20:33:11.309Z,100629.13
2022-08-25T20:35:57.053Z,100627.56
2022-08-25T20:38:43.510Z,100624.44
2022-08-25T20:41:28.736Z,100624.44
2022-08-25T20:44:14.994Z,100623.00
2022-08-25T20:47:05.653Z,100628.34
2022-08-25T20:52:36.738Z,100623.50
2022-08-25T20:55:24.353Z,100630.59
2022-08-25T20:58:09.406Z,100623.75
2022-08-25T21:00:54.532Z,100625.59
2022-08-25T21:03:39.908Z,100625.72
2022-08-25T21:06:25.225Z,100626.63
2022-08-25T21:09:16.167Z,100630.97
2022-08-25T21:12:02.690Z,100637.38
2022-08-25T21:14:48.047Z,100639.94
2022-08-25T21:17:33.381Z,100630.25
2022-08-25T21:20:18.460Z,100628.38
2022-08-25T21:23:03.579Z,100635.53
2022-08-25T21:25:51.358Z,100610.19
2022-08-25T21:28:36.291Z,100619.81
2022-08-25T21:31:21.243Z,100621.59
2022-08-25T21:34:06.630Z,100627.75
2022-08-25T21:36:53.633Z,100622.50
2022-08-25T21:39:39.014Z,100627.03
2022-08-25T21:42:26.316Z,100625.28
2022-08-25T21:45:12.205Z,100621.78
2022-08-25T21:47:58.064Z,100630.56
2022-08-25T21:50:43.526Z,100633.03
2022-08-25T21:53:28.818Z,100633.09
2022-08-25T21:56:18.812Z,100629.69
2022-08-25T21:59:07.413Z,100617.44
2022-08-25T22:01:57.828Z,100622.84
2022-08-25T22:04:43.757Z,100615.94
2022-08-25T22:07:28.556Z,100611.72
2022-08-25T22:10:20.273Z,100613.66
2022-08-25T22:13:05.503Z,100611.22
2022-08-25T22:15:52.073Z,100606.06
2022-08-25T22:18:38.075Z,100614.13
2022-08-25T22:21:23.413Z,100616.78
2022-08-25T22:24:10.025Z,100609.81
2022-08-25T22:26:56.053Z,100616.22
2022-08-25T22:29:41.113Z,100610.16
2022-08-25T22:32:26.425Z,100611.19
2022-08-25T22:35:11.748Z,100608.66
2022-08-25T22:37:58.343Z,100614.13
2022-08-25T22:40:43.682Z,100616.97
2022-08-25T22:43:29.145Z,100628.31
2022-08-25T22:46:14.799Z,100621.47
2022-08-25T22:49:02.464Z,100622.56
2022-08-25T22:51:47.438Z,100611.25
2022-08-25T22:54:32.542Z,100612.22
2022-08-25T22:57:18.061Z,100610.75
2022-08-25T23:00:08.298Z,100610.78
2022-08-25T23:02:53.573Z,100608.22
2022-08-25T23:05:39.844Z,100618.72
2022-08-25T23:08:38.201Z,100625.78
2022-08-25T23:11:26.202Z,100624.94
2022-08-25T23:14:14.173Z,100620.38
2022-08-25T23:16:58.964Z,100619.69
2022-08-25T23:19:43.829Z,100613.75
2022-08-25T23:22:29.110Z,100613.91
2022-08-25T23:25:14.557Z,100598.13
2022-08-25T23:28:00.119Z,100601.66
2022-08-25T23:30:51.790Z,100610.31
2022-08-25T23:33:45.221Z,100617.13
2022-08-25T23:36:30.218Z,100606.59
2022-08-25T23:39:15.579Z,100613.69
2022-08-25T23:42:00.847Z,100609.38
2022-08-25T23:44:46.992Z,100605.88
2022-08-25T23:47:32.136Z,100602.44
2022-08-25T23:50:17.626Z,100584.19
2022-08-25T23:53:03.412Z,100591.38
2022-08-25T23:55:53.053Z,100587.19
2022-08-25T23:58:39.398Z,100598.72
